Terminal Aerodrome Forecast
Issued by NWS

Home | Current Version | Previous Version | Text Only | Print | Product List | Glossary On
Versions: 1 2 3 4 5 6 7 8 9 10 11 12 13
000
FTUS44 KOUN 251602 AAA
TAFWWR
TAF AMD
KWWR 251602Z 2516/2612 32014KT P6SM FEW040
      TEMPO 2516/2518 BKN018
     FM252100 33009KT P6SM SCT250
     FM260500 14007KT P6SM BKN250=

USA.gov is the U.S. government's official web portal to all federal, state and local government web resources and services.